Time;durP1;ratioP1;P1;durP2;ratioP2;P2;SDS_P1;SDS_P2;PMS_P1;PMS_P2;Temp;Humidity;BMP_temperature;BMP_pressure;BME280_temperature;BME280_humidity;BME280_pressure;Samples;Min_cycle;Max_cycle;Signal;HPM_P1;HPM_P2
2021/03/20 00:01:32;;;;;;;82.32;43.03;;;128.50;1920.00;;;;;;5057127;28;20018;-80
2021/03/20 00:03:58;;;;;;;96.07;48.28;;;128.40;1920.00;;;;;;5057226;28;20073;-79
2021/03/20 00:06:29;;;;;;;93.50;48.58;;;128.50;1920.00;;;;;;5055556;28;20057;-79
2021/03/20 00:08:56;;;;;;;81.82;41.75;;;128.30;1945.60;;;;;;5059680;28;20050;-79
2021/03/20 00:11:23;;;;;;;81.53;40.05;;;128.30;1945.60;;;;;;5054146;28;20076;-79
2021/03/20 00:13:49;;;;;;;81.65;40.97;;;128.30;1971.20;;;;;;5055488;28;20029;-78
2021/03/20 00:16:16;;;;;;;80.50;42.28;;;128.20;1971.20;;;;;;5058419;28;20104;-78
2021/03/20 00:18:43;;;;;;;83.25;42.78;;;128.20;1971.20;;;;;;5055956;28;20009;-78
2021/03/20 00:21:09;;;;;;;84.45;44.58;;;128.30;1971.20;;;;;;5052010;28;20021;-78
2021/03/20 00:23:36;;;;;;;102.85;49.40;;;128.40;1971.20;;;;;;5050869;28;20443;-78
2021/03/20 00:26:02;;;;;;;104.20;48.13;;;128.40;1971.20;;;;;;5055212;28;20022;-78
2021/03/20 00:28:29;;;;;;;103.05;48.92;;;128.40;1971.20;;;;;;5055147;28;20062;-78
2021/03/20 00:31:00;;;;;;;95.28;44.95;;;128.30;1996.80;;;;;;5054536;28;20123;-78
2021/03/20 00:33:27;;;;;;;72.22;37.35;;;128.20;1996.80;;;;;;5034778;28;20053;-78
2021/03/20 00:35:55;;;;;;;80.35;38.58;;;128.30;1996.80;;;;;;5053227;28;20365;-78
2021/03/20 00:38:22;;;;;;;75.90;37.78;;;128.30;1996.80;;;;;;5054455;28;20021;-78
2021/03/20 00:40:49;;;;;;;68.70;33.80;;;128.30;1996.80;;;;;;5054015;28;20017;-78
2021/03/20 00:43:14;;;;;;;;;;;128.40;1971.20;;;;;;5055405;28;20045;-78
2021/03/20 00:45:40;;;;;;;83.43;39.17;;;128.30;1971.20;;;;;;5051062;28;20011;-77
2021/03/20 00:48:11;;;;;;;89.22;39.72;;;128.30;1971.20;;;;;;5050796;28;20021;-78
2021/03/20 00:50:38;;;;;;;137.13;57.10;;;128.40;1971.20;;;;;;5050822;28;20112;-78
2021/03/20 00:53:04;;;;;;;161.13;69.13;;;128.30;1971.20;;;;;;5051368;28;20032;-78
2021/03/20 00:55:30;;;;;;;190.98;79.45;;;128.30;1996.80;;;;;;5051671;28;20033;-78
2021/03/20 00:57:55;;;;;;;;;;;128.30;1996.80;;;;;;5057251;28;20021;-78
2021/03/20 01:00:25;;;;;;;152.95;65.38;;;128.20;1996.80;;;;;;5052337;28;19909;-77
2021/03/20 01:02:51;;;;;;;141.52;61.75;;;128.10;2022.40;;;;;;5035068;28;20052;-78
2021/03/20 01:05:19;;;;;;;192.60;80.60;;;128.40;2022.40;;;;;;5053300;28;20032;-78
2021/03/20 01:07:44;;;;;;;196.75;79.93;;;128.00;2022.40;;;;;;5048406;28;20477;-78
2021/03/20 01:10:20;;;;;;;186.75;75.07;;;128.00;2022.40;;;;;;5053891;28;20142;-78
2021/03/20 01:12:46;;;;;;;173.05;77.07;;;128.00;1996.80;;;;;;5033383;28;20473;-77
2021/03/20 01:15:18;;;;;;;129.63;57.20;;;103.20;1996.80;;;;;;5054861;28;20096;-78
2021/03/20 01:17:44;;;;;;;162.95;71.40;;;103.20;1996.80;;;;;;5047078;28;20021;-79
2021/03/20 01:20:14;;;;;;;82.28;40.78;;;103.20;2022.40;;;;;;5052876;28;20025;-78
2021/03/20 01:22:40;;;;;;;62.53;33.25;;;102.90;1996.80;;;;;;5054214;28;20040;-78
2021/03/20 01:25:07;;;;;;;62.22;33.05;;;103.20;1971.20;;;;;;5053753;28;20033;-78
2021/03/20 01:27:34;;;;;;;65.40;31.35;;;103.20;1996.80;;;;;;5055323;28;20029;-78
2021/03/20 01:30:00;;;;;;;71.20;34.47;;;103.20;1996.80;;;;;;5054510;28;20053;-77
2021/03/20 01:32:26;;;;;;;;;;;103.20;2022.40;;;;;;5053109;28;20078;-78
2021/03/20 01:34:51;;;;;;;69.45;34.17;;;103.10;2022.40;;;;;;5054476;28;19913;-78
2021/03/20 01:37:17;;;;;;;76.20;35.95;;;103.10;2022.40;;;;;;5056855;28;20028;-78
2021/03/20 01:39:43;;;;;;;;;;;103.10;2048.00;;;;;;5057748;28;20478;-78
2021/03/20 01:42:10;;;;;;;75.93;34.88;;;103.10;2048.00;;;;;;5055104;28;19905;-78
2021/03/20 01:44:36;;;;;;;80.18;35.50;;;103.10;2048.00;;;;;;5055894;28;20485;-78
2021/03/20 01:47:09;;;;;;;73.13;34.58;;;103.00;2048.00;;;;;;5056663;28;20029;-78
2021/03/20 01:49:39;;;;;;;64.97;34.15;;;103.00;2048.00;;;;;;5056801;28;20029;-78
2021/03/20 01:52:18;;;;;;;72.93;34.83;;;102.90;2048.00;;;;;;5053864;28;20048;-78
2021/03/20 01:55:06;;;;;;;68.20;33.90;;;102.90;2048.00;;;;;;5055738;28;20033;-78
2021/03/20 01:57:41;;;;;;;59.55;31.65;;;102.90;2048.00;;;;;;5059365;28;20496;-78
2021/03/20 02:00:12;;;;;;;60.22;30.13;;;102.80;2048.00;;;;;;5054624;28;20013;-77
2021/03/20 02:02:38;;;;;;;62.72;31.08;;;102.80;2048.00;;;;;;5058909;28;20108;-78
2021/03/20 02:05:09;;;;;;;65.97;33.05;;;102.90;2048.00;;;;;;5056659;28;20499;-78
2021/03/20 02:07:34;;;;;;;64.75;31.77;;;102.80;2048.00;;;;;;5059068;28;20017;-78
2021/03/20 02:10:00;;;;;;;71.07;33.75;;;102.80;2048.00;;;;;;5054724;28;20500;-78
2021/03/20 02:12:29;;;;;;;;;;;102.80;2073.60;;;;;;5055600;28;20021;-78
2021/03/20 02:15:13;;;;;;;58.95;31.15;;;102.80;2073.60;;;;;;5059282;28;19912;-78
2021/03/20 02:17:39;;;;;;;64.18;33.40;;;102.80;2048.00;;;;;;5038452;28;20029;-78
2021/03/20 02:20:49;;;;;;;67.53;34.70;;;102.80;2073.60;;;;;;5035283;28;20026;-78
2021/03/20 02:23:33;;;;;;;78.00;37.55;;;102.80;2073.60;;;;;;4970902;28;20033;-79
2021/03/20 02:26:21;;;;;;;70.32;33.95;;;102.80;2073.60;;;;;;4968864;28;20069;-78
2021/03/20 02:29:05;;;;;;;;;;;102.80;2073.60;;;;;;4959622;28;20423;-78
2021/03/20 02:31:55;;;;;;;72.28;34.67;;;102.80;2073.60;;;;;;4951927;28;19919;-78
2021/03/20 02:34:44;;;;;;;61.40;31.05;;;102.70;2073.60;;;;;;4966587;28;20121;-78
2021/03/20 02:37:44;;;;;;;59.25;30.52;;;102.70;2073.60;;;;;;4952759;28;20054;-78
2021/03/20 02:40:19;;;;;;;64.97;33.00;;;102.60;2073.60;;;;;;4969094;28;20019;-78
2021/03/20 02:43:05;;;;;;;59.10;31.20;;;102.60;2099.20;;;;;;4952871;28;20033;-78
2021/03/20 02:45:42;;;;;;;63.55;33.42;;;102.60;2099.20;;;;;;4945970;28;20090;-78
2021/03/20 02:48:16;;;;;;;54.70;30.00;;;102.60;2099.20;;;;;;4963582;28;20023;-78
2021/03/20 02:50:51;;;;;;;58.90;30.83;;;102.60;2099.20;;;;;;4963412;28;20196;-79
2021/03/20 02:53:24;;;;;;;57.70;29.85;;;102.60;2073.60;;;;;;4986125;28;20049;-79
2021/03/20 02:55:58;;;;;;;56.33;30.48;;;102.60;2073.60;;;;;;5048488;28;20025;-79
2021/03/20 02:58:29;;;;;;;62.00;31.23;;;102.70;2073.60;;;;;;5055173;28;20424;-78
2021/03/20 03:01:03;;;;;;;66.35;33.55;;;102.70;2073.60;;;;;;5055655;28;20029;-79
2021/03/20 03:03:33;;;;;;;58.60;30.95;;;102.70;2073.60;;;;;;5051342;28;20025;-79
2021/03/20 03:06:20;;;;;;;60.28;32.60;;;102.60;2073.60;;;;;;5054298;28;20093;-79
2021/03/20 03:08:48;;;;;;;;;;;102.40;2099.20;;;;;;5038281;28;20028;-80
2021/03/20 03:11:24;;;;;;;76.38;38.45;;;77.60;2124.80;;;;;;5057614;28;19908;-79
2021/03/20 03:13:54;;;;;;;;;;;77.50;2150.40;;;;;;5051322;28;20045;-79
2021/03/20 03:16:24;;;;;;;65.32;33.80;;;77.60;2150.40;;;;;;5053926;28;19904;-79
2021/03/20 03:18:58;;;;;;;80.28;38.53;;;77.60;2176.00;;;;;;5052486;28;20021;-79
2021/03/20 03:21:27;;;;;;;73.90;35.22;;;77.50;2176.00;;;;;;5060089;28;20020;-79
2021/03/20 03:23:53;;;;;;;63.78;35.22;;;77.50;2150.40;;;;;;5054108;28;20036;-80
2021/03/20 03:26:30;;;;;;;74.22;36.65;;;77.50;2150.40;;;;;;5049943;28;20025;-79
2021/03/20 03:29:05;;;;;;;78.35;38.67;;;77.40;2150.40;;;;;;5049083;28;20071;-78
2021/03/20 03:31:39;;;;;;;73.72;37.70;;;77.40;2176.00;;;;;;5045491;28;20493;-78
2021/03/20 03:34:12;;;;;;;81.55;40.95;;;77.50;2150.40;;;;;;5054414;28;20060;-79
2021/03/20 03:36:53;;;;;;;83.60;39.78;;;77.50;2150.40;;;;;;5055489;28;20031;-79
2021/03/20 03:39:44;;;;;;;70.07;37.72;;;77.70;2124.80;;;;;;5047250;28;20473;-80
2021/03/20 03:42:13;;;;;;;83.70;41.33;;;77.70;2124.80;;;;;;5050697;28;20025;-79
2021/03/20 03:44:42;;;;;;;82.57;40.05;;;77.60;2124.80;;;;;;5037256;28;20024;-79
2021/03/20 03:47:10;;;;;;;80.35;39.78;;;77.60;2124.80;;;;;;5051251;28;20075;-78
2021/03/20 03:49:36;;;;;;;93.75;45.22;;;77.50;2150.40;;;;;;5054509;28;20543;-79
2021/03/20 03:52:03;;;;;;;111.88;50.08;;;77.40;2150.40;;;;;;5053899;28;20048;-78
2021/03/20 03:54:29;;;;;;;111.88;51.53;;;77.40;2150.40;;;;;;5048873;28;20037;-78
2021/03/20 03:56:58;;;;;;;;;;;77.30;2150.40;;;;;;5054814;28;20017;-79
2021/03/20 03:59:36;;;;;;;95.25;45.10;;;77.20;2176.00;;;;;;5036288;28;19920;-79
2021/03/20 04:02:11;;;;;;;95.20;45.60;;;77.20;2176.00;;;;;;5053648;28;20187;-79
2021/03/20 04:04:58;;;;;;;83.82;43.25;;;77.20;2176.00;;;;;;5034443;28;20017;-79
2021/03/20 04:07:55;;;;;;;78.00;41.53;;;77.20;2176.00;;;;;;5034858;28;20035;-79
2021/03/20 04:10:42;;;;;;;90.95;42.78;;;77.10;2176.00;;;;;;5051685;28;20481;-79
2021/03/20 04:13:26;;;;;;;70.00;31.85;;;77.10;2176.00;;;;;;5053777;28;20021;-80
2021/03/20 04:16:09;;;;;;;78.00;39.60;;;77.10;2201.60;;;;;;5051371;28;20005;-79
2021/03/20 04:19:03;;;;;;;85.05;41.55;;;77.10;2201.60;;;;;;5048434;28;20040;-79
2021/03/20 04:21:29;;;;;;;96.32;42.72;;;77.00;2176.00;;;;;;5036971;28;20048;-79
2021/03/20 04:24:23;;;;;;;95.30;41.45;;;77.00;2201.60;;;;;;5036620;28;20489;-79
2021/03/20 04:26:52;;;;;;;78.15;40.00;;;77.00;2176.00;;;;;;5023976;28;20029;-78
2021/03/20 04:29:31;;;;;;;79.53;42.17;;;77.00;2201.60;;;;;;5053722;28;20112;-78
2021/03/20 04:32:25;;;;;;;83.55;41.53;;;77.00;2176.00;;;;;;5056413;28;20097;-79
2021/03/20 04:35:13;;;;;;;85.28;40.70;;;77.00;2176.00;;;;;;5048913;28;20024;-78
2021/03/20 04:37:44;;;;;;;80.57;40.38;;;77.00;2176.00;;;;;;5054560;28;20119;-78
2021/03/20 04:40:38;;;;;;;80.60;41.03;;;77.00;2176.00;;;;;;5053569;28;20029;-79
2021/03/20 04:43:04;;;;;;;84.72;41.63;;;77.00;2176.00;;;;;;5034509;28;20485;-78
2021/03/20 04:45:35;;;;;;;81.88;42.47;;;76.90;2201.60;;;;;;5053426;28;20461;-78
2021/03/20 04:48:07;;;;;;;86.03;43.05;;;52.10;2201.60;;;;;;5036988;28;20021;-79
2021/03/20 04:50:35;;;;;;;85.90;41.63;;;52.10;2227.20;;;;;;5056069;28;20032;-83
2021/03/20 04:53:01;;;;;;;72.05;38.05;;;76.80;2227.20;;;;;;5054102;28;20025;-78
2021/03/20 04:55:29;;;;;;;76.60;38.22;;;76.90;2201.60;;;;;;5051615;28;20039;-78
2021/03/20 04:58:14;;;;;;;79.75;40.58;;;77.00;2201.60;;;;;;5054703;28;20021;-79
2021/03/20 05:00:53;;;;;;;76.43;37.35;;;77.00;2176.00;;;;;;5048344;28;20094;-78
2021/03/20 05:03:26;;;;;;;76.93;36.83;;;77.10;2150.40;;;;;;5053319;28;20365;-79
2021/03/20 05:05:58;;;;;;;68.32;36.85;;;77.10;2150.40;;;;;;5051068;28;20025;-79
2021/03/20 05:09:03;;;;;;;162.20;71.90;;;77.10;2176.00;;;;;;5053671;28;20503;-79
2021/03/20 05:11:51;;;;;;;235.43;104.50;;;77.20;2124.80;;;;;;5051150;28;20075;-78
2021/03/20 05:14:40;;;;;;;130.23;63.35;;;77.20;2150.40;;;;;;5054873;28;20012;-78
2021/03/20 05:17:18;;;;;;;101.40;48.35;;;77.20;2150.40;;;;;;5057587;28;20017;-79
2021/03/20 05:19:44;;;;;;;72.85;36.83;;;77.20;2150.40;;;;;;5057960;28;20520;-79
2021/03/20 05:22:24;;;;;;;66.72;34.60;;;77.20;2150.40;;;;;;5056514;28;20024;-78
2021/03/20 05:24:51;;;;;;;61.80;32.28;;;77.40;2124.80;;;;;;5055301;28;20116;-78
2021/03/20 05:27:22;;;;;;;60.92;32.03;;;77.40;2124.80;;;;;;5054598;28;20092;-79
2021/03/20 05:29:48;;;;;;;54.88;30.08;;;77.40;2124.80;;;;;;5056366;28;20053;-78
2021/03/20 05:32:17;;;;;;;62.95;30.67;;;77.40;2124.80;;;;;;5054235;28;20048;-78
2021/03/20 05:34:44;;;;;;;51.13;29.52;;;77.30;2124.80;;;;;;5054287;28;20393;-78
2021/03/20 05:37:20;;;;;;;60.13;31.00;;;77.40;2124.80;;;;;;5056210;28;20017;-78
2021/03/20 05:39:46;;;;;;;63.47;32.28;;;77.40;2124.80;;;;;;5039911;28;20033;-78
2021/03/20 05:42:29;;;;;;;57.08;29.83;;;77.40;2124.80;;;;;;5056100;28;20025;-78
2021/03/20 05:45:10;;;;;;;56.58;30.10;;;77.40;2124.80;;;;;;5046158;28;20025;-79
2021/03/20 05:48:02;;;;;;;53.42;29.77;;;77.50;2124.80;;;;;;5037527;28;20041;-78
2021/03/20 05:50:50;;;;;;;51.53;28.65;;;77.60;2124.80;;;;;;5020756;28;20041;-78
2021/03/20 05:53:33;;;;;;;55.67;28.27;;;77.60;2099.20;;;;;;5053368;28;20358;-78
2021/03/20 05:56:07;;;;;;;53.13;29.92;;;77.70;2099.20;;;;;;5054030;28;20025;-79
2021/03/20 05:58:59;;;;;;;57.00;28.25;;;77.70;2099.20;;;;;;5056717;28;20345;-78
2021/03/20 06:01:49;;;;;;;54.35;31.00;;;77.70;2099.20;;;;;;5053579;28;20056;-79
2021/03/20 06:04:45;;;;;;;59.75;30.23;;;77.70;2073.60;;;;;;5052775;28;20051;-78
2021/03/20 06:07:54;;;;;;;50.45;29.20;;;102.40;2099.20;;;;;;5055759;28;20049;-78
2021/03/20 06:10:30;;;;;;;57.35;30.42;;;102.40;2073.60;;;;;;4975869;28;20434;-78
2021/03/20 06:13:33;;;;;;;58.75;30.90;;;77.10;2201.60;;;;;;4974354;28;20027;-78
2021/03/20 06:16:18;;;;;;;64.43;32.45;;;77.50;2176.00;;;;;;4916829;29;20034;-76
2021/03/20 06:19:01;;;;;;;54.10;30.15;;;102.40;2124.80;;;;;;4916312;29;20040;-78
2021/03/20 06:21:57;;;;;;;48.95;29.52;;;77.60;2176.00;;;;;;4900433;29;20524;-79
2021/03/20 06:24:44;;;;;;;59.10;31.48;;;102.50;2099.20;;;;;;4901334;29;20032;-81
2021/03/20 06:27:14;;;;;;;64.32;31.58;;;102.60;2073.60;;;;;;4917132;29;20032;-79
2021/03/20 06:30:02;;;;;;;51.22;28.35;;;102.80;2073.60;;;;;;4918613;29;20514;-78
2021/03/20 06:32:37;;;;;;;71.72;33.90;;;102.90;2048.00;;;;;;4920025;29;20031;-80
2021/03/20 06:35:45;;;;;;;75.03;37.75;;;103.10;2022.40;;;;;;4918696;29;20493;-79
2021/03/20 06:38:42;;;;;;;75.25;36.28;;;103.30;1971.20;;;;;;4831291;29;20077;-79
2021/03/20 06:41:31;;;;;;;45.70;25.70;;;103.30;1996.80;;;;;;4773418;30;20039;-79
2021/03/20 06:44:01;;;;;;;54.00;29.92;;;103.00;2073.60;;;;;;4765764;30;20486;-78
2021/03/20 06:46:34;;;;;;;54.20;27.77;;;103.00;2048.00;;;;;;4802396;29;20035;-79
2021/03/20 06:49:06;;;;;;;50.88;28.20;;;103.00;2048.00;;;;;;4839762;29;20040;-78
2021/03/20 06:51:33;;;;;;;53.25;29.92;;;103.20;1996.80;;;;;;4864727;29;20049;-80
2021/03/20 06:54:05;;;;;;;56.17;28.23;;;102.90;2099.20;;;;;;4847785;29;20037;-81
2021/03/20 06:56:36;;;;;;;56.05;29.83;;;102.70;2124.80;;;;;;4863823;29;20582;-77
2021/03/20 06:59:11;;;;;;;52.58;29.38;;;102.40;2227.20;;;;;;4862907;29;20050;-79
2021/03/20 07:02:03;;;;;;;51.20;27.40;;;102.80;2176.00;;;;;;4853324;29;20117;-81
2021/03/20 07:04:58;;;;;;;53.33;25.52;;;102.70;2201.60;;;;;;4866646;29;20055;-78
2021/03/20 07:07:45;;;;;;;51.38;26.73;;;102.70;2176.00;;;;;;4861649;29;20033;-78
2021/03/20 07:10:28;;;;;;;57.33;30.73;;;102.90;2176.00;;;;;;4854704;29;20029;-81
2021/03/20 07:13:14;;;;;;;46.92;25.75;;;103.10;2150.40;;;;;;4852401;29;20057;-79
2021/03/20 07:15:41;;;;;;;45.03;25.45;;;103.10;2150.40;;;;;;4917503;29;20035;-79
2021/03/20 07:18:20;;;;;;;45.72;26.02;;;103.00;2124.80;;;;;;4983222;28;20040;-79
2021/03/20 07:20:46;;;;;;;43.60;26.13;;;102.80;2176.00;;;;;;5055382;28;20469;-78
2021/03/20 07:23:16;;;;;;;42.15;24.90;;;102.90;2124.80;;;;;;5054797;28;20090;-77
2021/03/20 07:25:47;;;;;;;49.53;24.65;;;103.20;2124.80;;;;;;5052712;28;20129;-78
2021/03/20 07:28:23;;;;;;;47.50;25.35;;;128.00;2124.80;;;;;;5053125;28;20127;-77
2021/03/20 07:31:11;;;;;;;38.60;23.75;;;128.30;2099.20;;;;;;5038861;28;20110;-77
2021/03/20 07:33:48;;;;;;;48.22;26.15;;;128.80;2048.00;;;;;;5014451;28;20115;-78
2021/03/20 07:36:22;;;;;;;43.65;26.38;;;128.70;2073.60;;;;;;5013209;28;20022;-78
2021/03/20 07:39:18;;;;;;;47.53;26.25;;;153.60;2099.20;;;;;;5017342;28;20072;-78
2021/03/20 07:41:53;;;;;;;48.70;24.67;;;153.80;2022.40;;;;;;5014313;28;20026;-78
2021/03/20 07:44:20;;;;;;;53.65;25.60;;;153.90;1945.60;;;;;;5013871;28;20474;-78
2021/03/20 07:46:46;;;;;;;42.17;25.67;;;154.10;1996.80;;;;;;5014853;28;20088;-77
2021/03/20 07:49:26;;;;;;;43.00;25.65;;;154.50;1945.60;;;;;;5012833;28;20032;-79
2021/03/20 07:52:02;;;;;;;39.80;23.40;;;154.20;1920.00;;;;;;5013102;28;20448;-79
2021/03/20 07:54:37;;;;;;;48.10;28.40;;;154.20;1971.20;;;;;;5011501;28;20038;-78
2021/03/20 07:57:10;;;;;;;38.97;24.35;;;154.00;1971.20;;;;;;5012309;28;20026;-79
2021/03/20 07:59:47;;;;;;;42.55;23.98;;;154.30;1894.40;;;;;;5012388;28;20041;-78
2021/03/20 08:02:36;;;;;;;39.63;24.10;;;179.20;1894.40;;;;;;5010366;28;20034;-79
2021/03/20 08:05:27;;;;;;;40.80;23.27;;;179.30;1843.20;;;;;;5012145;28;20057;-79
2021/03/20 08:07:54;;;;;;;41.28;24.92;;;179.40;1817.60;;;;;;5012185;28;20030;-80
2021/03/20 08:10:24;;;;;;;39.05;23.30;;;179.50;1792.00;;;;;;5012182;28;20049;-81
2021/03/20 08:13:00;;;;;;;39.08;23.30;;;179.40;1715.20;;;;;;5012515;28;20022;-81
2021/03/20 08:15:36;;;;;;;42.42;22.85;;;179.40;1689.60;;;;;;5027926;28;20029;-81
2021/03/20 08:18:23;;;;;;;42.65;25.35;;;179.60;1766.40;;;;;;5027874;28;20355;-78
2021/03/20 08:21:20;;;;;;;40.63;24.45;;;179.40;1817.60;;;;;;5007775;28;20512;-84
2021/03/20 08:24:16;;;;;;;41.17;24.17;;;179.70;1868.80;;;;;;5011963;28;20045;-88
2021/03/20 08:26:53;;;;;;;36.78;22.73;;;179.70;1792.00;;;;;;5012097;28;20030;-83
2021/03/20 08:29:40;;;;;;;39.47;21.02;;;179.70;1817.60;;;;;;5015362;28;20057;-80
2021/03/20 08:32:40;;;;;;;32.30;19.17;;;179.60;1792.00;;;;;;5046800;28;20465;-83
2021/03/20 08:35:24;;;;;;;41.13;25.17;;;179.70;1843.20;;;;;;4968964;28;20499;-85
2021/03/20 08:38:07;;;;;;;37.83;23.25;;;179.70;1868.80;;;;;;4967268;28;20585;-87
2021/03/20 08:40:51;;;;;;;38.05;22.38;;;179.80;1868.80;;;;;;4967928;28;20034;-78
2021/03/20 08:43:50;;;;;;;32.45;20.05;;;180.00;1792.00;;;;;;4959493;28;20476;-77
2021/03/20 08:46:46;;;;;;;32.75;19.45;;;180.10;1766.40;;;;;;4966745;28;20395;-77
2021/03/20 08:49:42;;;;;;;28.58;17.23;;;204.80;1740.80;;;;;;4969620;28;20029;-78
2021/03/20 08:52:24;;;;;;;24.60;14.90;;;204.90;1740.80;;;;;;4972179;28;20617;-81
2021/03/20 08:55:16;;;;;;;27.75;17.70;;;205.00;1689.60;;;;;;4954185;28;20074;-81
2021/03/20 08:58:00;;;;;;;33.17;17.85;;;205.00;1689.60;;;;;;4952257;28;20035;-79
2021/03/20 09:01:22;;;;;;;26.65;16.90;;;205.10;1715.20;;;;;;4946720;28;20042;-78
2021/03/20 09:03:52;;;;;;;26.63;17.02;;;205.20;1638.40;;;;;;4887558;29;20025;-79
2021/03/20 09:06:20;;;;;;;26.90;17.35;;;205.10;1715.20;;;;;;4874482;29;20071;-82
2021/03/20 09:08:48;;;;;;;25.95;16.75;;;205.20;1689.60;;;;;;4898262;29;20033;-80
2021/03/20 09:11:22;;;;;;;26.98;17.00;;;205.30;1587.20;;;;;;4912469;28;20042;-82
2021/03/20 09:13:55;;;;;;;28.65;15.52;;;205.40;1664.00;;;;;;4991795;28;20031;-82
2021/03/20 09:16:31;;;;;;;24.08;16.00;;;205.50;1638.40;;;;;;4994071;28;20030;-88
2021/03/20 09:19:02;;;;;;;38.83;17.88;;;230.40;1536.00;;;;;;4993499;28;20114;-74
2021/03/20 09:21:29;;;;;;;28.05;17.83;;;230.50;1612.80;;;;;;4993655;28;20035;-77
2021/03/20 09:23:55;;;;;;;25.05;17.00;;;230.60;1536.00;;;;;;4975819;28;20488;-75
2021/03/20 09:26:39;;;;;;;;;;;230.80;1510.40;;;;;;4993642;28;20031;-76
2021/03/20 09:29:08;;;;;;;20.00;12.18;;;230.80;1382.40;;;;;;4991699;28;19964;-75
2021/03/20 09:31:51;;;;;;;23.40;14.40;;;230.90;1382.40;;;;;;4992748;28;20038;-77
2021/03/20 09:34:35;;;;;;;25.88;13.68;;;230.80;1484.80;;;;;;5007064;28;20037;-74
2021/03/20 09:37:04;;;;;;;24.45;15.32;;;230.80;1356.80;;;;;;5054641;28;20567;-77
2021/03/20 09:39:41;;;;;;;20.85;14.93;;;230.70;1408.00;;;;;;5054388;28;20528;-77
2021/03/20 09:42:32;;;;;;;24.27;13.98;;;231.10;1408.00;;;;;;5054547;28;20096;-75
2021/03/20 09:45:13;;;;;;;21.67;13.57;;;231.30;1382.40;;;;;;5054637;28;20499;-76
2021/03/20 09:47:41;;;;;;;21.38;12.70;;;256.30;1356.80;;;;;;5035953;28;20099;-76
2021/03/20 09:50:19;;;;;;;19.38;12.60;;;256.40;1228.80;;;;;;5053939;28;20377;-75
2021/03/20 09:52:50;;;;;;;22.55;13.10;;;256.50;1228.80;;;;;;5054129;28;20044;-75
2021/03/20 09:55:31;;;;;;;16.30;10.98;;;256.50;1254.40;;;;;;5033936;28;20492;-76
2021/03/20 09:58:01;;;;;;;19.90;12.07;;;256.70;1203.20;;;;;;5049819;28;20384;-73
2021/03/20 10:00:45;;;;;;;17.05;11.05;;;256.80;1254.40;;;;;;5053733;28;20037;-74
2021/03/20 10:03:11;;;;;;;17.13;10.82;;;256.50;1152.00;;;;;;5053735;28;20021;-75
2021/03/20 10:05:37;;;;;;;18.60;12.90;;;256.40;1280.00;;;;;;5053812;28;20021;-76
2021/03/20 10:08:20;;;;;;;16.20;10.93;;;256.90;1254.40;;;;;;5053960;28;20017;-74
2021/03/20 10:10:53;;;;;;;18.48;13.13;;;256.50;1126.40;;;;;;5051546;28;20033;-75
2021/03/20 10:13:18;;;;;;;19.45;10.77;;;256.40;1228.80;;;;;;5054019;28;20028;-75
2021/03/20 10:15:55;;;;;;;16.98;10.25;;;256.50;1203.20;;;;;;5035727;28;20029;-76
2021/03/20 10:18:27;;;;;;;18.25;12.27;;;256.60;1228.80;;;;;;5053992;28;20124;-75
2021/03/20 10:20:56;;;;;;;16.52;10.48;;;281.80;1177.60;;;;;;5053588;28;20408;-75
2021/03/20 10:23:31;;;;;;;20.98;12.30;;;282.00;1177.60;;;;;;5035054;28;20041;-75
2021/03/20 10:25:59;;;;;;;17.85;12.48;;;281.70;1152.00;;;;;;5020098;28;20026;-75
2021/03/20 10:28:29;;;;;;;18.10;11.80;;;282.30;1075.20;;;;;;5032418;28;20037;-75
2021/03/20 10:31:04;;;;;;;16.52;11.02;;;282.50;1100.80;;;;;;5039167;28;20558;-77
2021/03/20 10:33:38;;;;;;;17.25;11.35;;;282.10;1126.40;;;;;;5052234;28;20021;-73
2021/03/20 10:36:21;;;;;;;25.25;13.43;;;307.40;1203.20;;;;;;5035261;28;20472;-74
2021/03/20 10:38:49;;;;;;;16.52;11.40;;;282.40;1126.40;;;;;;5052612;28;20076;-74
2021/03/20 10:41:33;;;;;;;20.52;13.80;;;282.10;1126.40;;;;;;5053335;28;20047;-75
2021/03/20 10:44:01;;;;;;;17.05;11.38;;;307.40;1152.00;;;;;;5046889;28;20025;-83
2021/03/20 10:46:34;;;;;;;18.60;11.00;;;307.30;1126.40;;;;;;5053265;28;20378;-74
2021/03/20 10:49:28;;;;;;;17.15;11.80;;;282.40;1100.80;;;;;;5035380;28;20070;-84
2021/03/20 10:51:57;;;;;;;17.50;12.25;;;282.40;1152.00;;;;;;5052248;28;20374;-75
2021/03/20 10:54:33;;;;;;;17.77;11.85;;;282.40;1126.40;;;;;;5035186;28;20025;-84
2021/03/20 10:57:08;;;;;;;16.17;11.38;;;282.20;1152.00;;;;;;5051667;28;20450;-76
2021/03/20 10:59:37;;;;;;;21.10;12.18;;;282.00;1100.80;;;;;;5025103;28;20033;-74
2021/03/20 11:02:22;;;;;;;16.10;11.25;;;281.90;1152.00;;;;;;5034838;28;20048;-74
2021/03/20 11:04:49;;;;;;;16.30;10.60;;;281.70;1152.00;;;;;;5051283;28;20033;-75
2021/03/20 11:07:18;;;;;;;13.82;9.77;;;256.90;1100.80;;;;;;5052471;28;20108;-75
2021/03/20 11:09:44;;;;;;;16.83;10.52;;;256.70;1126.40;;;;;;5052539;28;20591;-74
2021/03/20 11:12:28;;;;;;;13.93;10.35;;;256.70;1126.40;;;;;;5051349;28;20083;-78
2021/03/20 11:14:59;;;;;;;14.48;10.13;;;256.60;1152.00;;;;;;5051283;28;20106;-74
2021/03/20 11:17:28;;;;;;;14.73;10.38;;;256.50;1126.40;;;;;;5043229;28;20017;-77
2021/03/20 11:20:29;;;;;;;13.63;9.90;;;256.50;1126.40;;;;;;5052502;28;20488;-75
2021/03/20 11:22:55;;;;;;;15.52;10.52;;;256.50;1100.80;;;;;;5034011;28;20124;-75
2021/03/20 11:25:40;;;;;;;17.65;12.05;;;256.30;1152.00;;;;;;5052557;28;20100;-75
2021/03/20 11:28:14;;;;;;;14.45;9.95;;;256.10;1228.80;;;;;;5051232;28;20040;-74
2021/03/20 11:30:43;;;;;;;17.42;11.00;;;256.10;1177.60;;;;;;5034468;28;20068;-75
2021/03/20 11:33:17;;;;;;;14.90;10.27;;;256.70;1152.00;;;;;;5034409;28;20357;-76
2021/03/20 11:35:48;;;;;;;15.88;11.32;;;256.80;1126.40;;;;;;5052165;28;20110;-86
2021/03/20 11:38:17;;;;;;;17.95;10.63;;;256.50;1254.40;;;;;;5048846;28;20488;-77
2021/03/20 11:40:45;;;;;;;21.98;12.25;;;256.70;1152.00;;;;;;5050922;28;20037;-78
2021/03/20 11:43:19;;;;;;;19.27;12.63;;;256.50;1254.40;;;;;;5051314;28;20110;-76
2021/03/20 11:45:45;;;;;;;19.75;12.25;;;256.80;1203.20;;;;;;5050832;28;20036;-77
2021/03/20 11:48:23;;;;;;;16.90;10.88;;;256.80;1177.60;;;;;;5047883;28;20025;-77
2021/03/20 11:50:58;;;;;;;19.42;12.10;;;282.10;1126.40;;;;;;5034158;28;20480;-79
2021/03/20 11:53:50;;;;;;;107.68;61.13;;;282.10;1152.00;;;;;;5050527;28;20091;-81
2021/03/20 11:56:17;;;;;;;78.20;41.38;;;281.90;1152.00;;;;;;5047831;28;20060;-81
2021/03/20 11:58:55;;;;;;;17.25;9.68;;;282.00;1126.40;;;;;;5034412;28;20029;-80
2021/03/20 12:01:46;;;;;;;13.45;8.90;;;307.20;1049.60;;;;;;5051956;28;20017;-76
2021/03/20 12:04:12;;;;;;;14.98;10.55;;;307.50;1024.00;;;;;;5057105;28;20104;-77
2021/03/20 12:06:38;;;;;;;14.25;10.07;;;282.50;1024.00;;;;;;5051843;28;20598;-78
2021/03/20 12:09:22;;;;;;;13.43;9.85;;;282.20;972.80;;;;;;5133049;22;20054;-78
2021/03/20 12:11:48;;;;;;;15.77;10.60;;;282.00;1075.20;;;;;;5051980;28;20033;-79
2021/03/20 12:14:39;;;;;;;23.95;13.48;;;256.70;1100.80;;;;;;5034568;28;20040;-83
2021/03/20 12:17:09;;;;;;;17.52;12.00;;;281.60;1152.00;;;;;;5047954;28;20089;-83
2021/03/20 12:20:02;;;;;;;25.70;10.77;;;281.70;1177.60;;;;;;5060554;28;20024;-78
2021/03/20 12:22:52;;;;;;;21.48;11.38;;;282.00;1152.00;;;;;;5053879;28;20554;-80
2021/03/20 12:25:34;;;;;;;16.83;11.55;;;282.10;1152.00;;;;;;5064987;28;20025;-79
2021/03/20 12:28:37;;;;;;;16.52;11.55;;;281.90;1126.40;;;;;;5034588;28;20476;-82
2021/03/20 12:31:03;;;;;;;18.45;11.60;;;281.70;1177.60;;;;;;5070921;28;20031;-77
2021/03/20 12:33:29;;;;;;;18.33;11.43;;;282.00;1152.00;;;;;;5072211;28;20039;-81
2021/03/20 12:35:55;;;;;;;17.27;10.35;;;281.80;1126.40;;;;;;5064087;28;20024;-81
2021/03/20 12:38:26;;;;;;;18.67;11.68;;;256.90;1152.00;;;;;;5070771;28;20058;-83
2021/03/20 12:40:59;;;;;;;15.90;11.40;;;256.70;1152.00;;;;;;5048965;28;20507;-78
2021/03/20 12:43:33;;;;;;;18.77;11.52;;;256.50;1177.60;;;;;;5054837;28;20021;-77
2021/03/20 12:46:03;;;;;;;15.43;11.23;;;256.50;1152.00;;;;;;5042851;28;20473;-80
2021/03/20 12:48:30;;;;;;;16.92;11.52;;;256.50;1177.60;;;;;;5048373;28;20039;-78